Mount Union, Pennsylvania
Current Conditions -  °F | °C
As of 8:53 AM on Friday 19 Dec 2014 (Local Time) from KAOO Reporting Station
Overcast Overcast  
Wind Chill: 19°   Ceiling: 1800
Heat Index: 29°   Visibility: 10mi
Dew Point: 23°   Wind: 13mph
Humidity: 78%   Direction: 310°NW
Pressure: 30.12"   Gusts: NA
Location:  40.38°N, 77.88°W
Report Text: KAOO 191353Z AUTO 31011KT 10SM OVC018 M02/M05 A3012 RMK AO2 SLP219 T10171050
Loading
Personal Weather Stations






























Interactive Weather Map New forecast layout! Learn more

10-Day Weather Forecast

Advertisements
Track Severe Weather on mobile